sensor_id;sensor_type;location;lat;lon;timestamp;pressure;altitude;pressure_sealevel;temperature;humidity
43420;BME280;29017;51.514;-0.178;2023-02-18T00:01:51;101854.28;;;14.35;94.56
43420;BME280;29017;51.514;-0.178;2023-02-18T00:04:18;101846.22;;;14.36;95.23
43420;BME280;29017;51.514;-0.178;2023-02-18T00:06:45;101853.84;;;14.39;95.05
43420;BME280;29017;51.514;-0.178;2023-02-18T00:09:13;101837.97;;;14.39;94.64
43420;BME280;29017;51.514;-0.178;2023-02-18T00:11:40;101841.59;;;14.38;93.63
43420;BME280;29017;51.514;-0.178;2023-02-18T00:14:09;101843.25;;;14.39;92.75
43420;BME280;29017;51.514;-0.178;2023-02-18T00:16:37;101842.28;;;14.40;92.32
43420;BME280;29017;51.514;-0.178;2023-02-18T00:19:05;101845.78;;;14.41;92.02
43420;BME280;29017;51.514;-0.178;2023-02-18T00:21:33;101849.06;;;14.43;92.37
43420;BME280;29017;51.514;-0.178;2023-02-18T00:24:00;101842.66;;;14.45;92.19
43420;BME280;29017;51.514;-0.178;2023-02-18T00:26:28;101835.53;;;14.46;91.96
43420;BME280;29017;51.514;-0.178;2023-02-18T00:28:55;101839.31;;;14.43;91.32
43420;BME280;29017;51.514;-0.178;2023-02-18T00:31:23;101832.22;;;14.44;91.21
43420;BME280;29017;51.514;-0.178;2023-02-18T00:33:51;101832.38;;;14.42;91.04
43420;BME280;29017;51.514;-0.178;2023-02-18T00:36:18;101834.34;;;14.40;91.20
43420;BME280;29017;51.514;-0.178;2023-02-18T00:38:48;101829.03;;;14.40;91.38
43420;BME280;29017;51.514;-0.178;2023-02-18T00:41:15;101832.53;;;14.41;91.57
43420;BME280;29017;51.514;-0.178;2023-02-18T00:43:42;101830.53;;;14.43;91.64
43420;BME280;29017;51.514;-0.178;2023-02-18T00:46:10;101819.16;;;14.42;91.30
43420;BME280;29017;51.514;-0.178;2023-02-18T00:48:37;101811.84;;;14.44;91.95
43420;BME280;29017;51.514;-0.178;2023-02-18T00:51:05;101808.56;;;14.42;91.99
43420;BME280;29017;51.514;-0.178;2023-02-18T00:53:32;101810.38;;;14.42;92.18
43420;BME280;29017;51.514;-0.178;2023-02-18T00:55:59;101808.84;;;14.39;92.11
43420;BME280;29017;51.514;-0.178;2023-02-18T00:58:27;101811.63;;;14.38;92.79
43420;BME280;29017;51.514;-0.178;2023-02-18T01:00:54;101818.03;;;14.35;93.27
43420;BME280;29017;51.514;-0.178;2023-02-18T01:03:21;101820.47;;;14.29;93.69
43420;BME280;29017;51.514;-0.178;2023-02-18T01:05:49;101799.22;;;14.21;93.56
43420;BME280;29017;51.514;-0.178;2023-02-18T01:08:17;101809.13;;;14.19;94.27
43420;BME280;29017;51.514;-0.178;2023-02-18T01:10:45;101807.44;;;14.18;94.82
43420;BME280;29017;51.514;-0.178;2023-02-18T01:13:12;101805.34;;;14.21;95.56
43420;BME280;29017;51.514;-0.178;2023-02-18T01:15:40;101803.53;;;14.22;95.73
43420;BME280;29017;51.514;-0.178;2023-02-18T01:18:08;101805.34;;;14.21;95.42
43420;BME280;29017;51.514;-0.178;2023-02-18T01:20:36;101792.59;;;14.17;95.60
43420;BME280;29017;51.514;-0.178;2023-02-18T01:23:03;101793.56;;;14.16;96.02
43420;BME280;29017;51.514;-0.178;2023-02-18T01:25:30;101790.22;;;14.13;95.89
43420;BME280;29017;51.514;-0.178;2023-02-18T01:27:57;101786.91;;;14.11;96.47
43420;BME280;29017;51.514;-0.178;2023-02-18T01:30:24;101777.59;;;14.07;96.37
43420;BME280;29017;51.514;-0.178;2023-02-18T01:32:51;101778.22;;;14.01;96.28
43420;BME280;29017;51.514;-0.178;2023-02-18T01:35:19;101775.03;;;13.98;96.14
43420;BME280;29017;51.514;-0.178;2023-02-18T01:37:46;101774.19;;;13.97;96.44
43420;BME280;29017;51.514;-0.178;2023-02-18T01:40:14;101769.06;;;13.96;96.65
43420;BME280;29017;51.514;-0.178;2023-02-18T01:42:41;101777.00;;;13.96;96.76
43420;BME280;29017;51.514;-0.178;2023-02-18T01:47:38;101772.84;;;13.93;94.61
43420;BME280;29017;51.514;-0.178;2023-02-18T01:50:05;101772.16;;;13.91;94.12
43420;BME280;29017;51.514;-0.178;2023-02-18T01:52:32;101772.16;;;13.91;94.33
43420;BME280;29017;51.514;-0.178;2023-02-18T01:54:59;101771.63;;;13.88;93.96
43420;BME280;29017;51.514;-0.178;2023-02-18T01:57:28;101781.09;;;13.90;93.61
43420;BME280;29017;51.514;-0.178;2023-02-18T01:59:58;101780.25;;;13.90;93.35
43420;BME280;29017;51.514;-0.178;2023-02-18T02:02:26;101777.75;;;13.88;92.26
43420;BME280;29017;51.514;-0.178;2023-02-18T02:04:53;101789.31;;;13.87;91.88
43420;BME280;29017;51.514;-0.178;2023-02-18T02:07:21;101789.84;;;13.91;91.23
43420;BME280;29017;51.514;-0.178;2023-02-18T02:09:50;101794.97;;;13.92;90.07
43420;BME280;29017;51.514;-0.178;2023-02-18T02:14:53;101780.91;;;13.92;88.95
43420;BME280;29017;51.514;-0.178;2023-02-18T02:20:02;101774.13;;;13.89;88.18
43420;BME280;29017;51.514;-0.178;2023-02-18T02:32:44;101772.53;;;13.79;88.64
43420;BME280;29017;51.514;-0.178;2023-02-18T02:35:20;101764.34;;;13.72;87.97
43420;BME280;29017;51.514;-0.178;2023-02-18T02:45:25;101736.03;;;13.64;86.45
43420;BME280;29017;51.514;-0.178;2023-02-18T02:52:51;101741.44;;;13.63;83.65
43420;BME280;29017;51.514;-0.178;2023-02-18T02:55:20;101740.63;;;13.62;82.90
43420;BME280;29017;51.514;-0.178;2023-02-18T02:57:48;101732.84;;;13.61;81.95
43420;BME280;29017;51.514;-0.178;2023-02-18T03:00:16;101721.44;;;13.60;80.77
43420;BME280;29017;51.514;-0.178;2023-02-18T03:17:45;101699.66;;;13.66;75.94
43420;BME280;29017;51.514;-0.178;2023-02-18T03:22:46;101695.53;;;13.64;75.68
43420;BME280;29017;51.514;-0.178;2023-02-18T03:25:14;101691.06;;;13.64;76.12
43420;BME280;29017;51.514;-0.178;2023-02-18T03:27:43;101686.59;;;13.65;76.43
43420;BME280;29017;51.514;-0.178;2023-02-18T03:30:13;101691.91;;;13.65;76.05
43420;BME280;29017;51.514;-0.178;2023-02-18T03:32:41;101687.72;;;13.62;75.66
43420;BME280;29017;51.514;-0.178;2023-02-18T03:35:12;101682.44;;;13.62;75.81
43420;BME280;29017;51.514;-0.178;2023-02-18T03:37:42;101682.44;;;13.62;75.61
43420;BME280;29017;51.514;-0.178;2023-02-18T03:40:09;101686.75;;;13.63;75.34
43420;BME280;29017;51.514;-0.178;2023-02-18T03:42:37;101675.34;;;13.63;75.44
43420;BME280;29017;51.514;-0.178;2023-02-18T03:45:04;101672.69;;;13.63;76.27
43420;BME280;29017;51.514;-0.178;2023-02-18T03:47:31;101663.94;;;13.62;75.25
43420;BME280;29017;51.514;-0.178;2023-02-18T03:49:58;101671.34;;;13.59;74.69
43420;BME280;29017;51.514;-0.178;2023-02-18T03:52:25;101668.00;;;13.57;75.35
43420;BME280;29017;51.514;-0.178;2023-02-18T03:54:52;101668.31;;;13.54;74.72
43420;BME280;29017;51.514;-0.178;2023-02-18T03:57:19;101659.69;;;13.52;74.01
43420;BME280;29017;51.514;-0.178;2023-02-18T03:59:46;101651.25;;;13.48;74.34
43420;BME280;29017;51.514;-0.178;2023-02-18T04:02:12;101652.06;;;13.49;74.26
43420;BME280;29017;51.514;-0.178;2023-02-18T04:04:39;101649.28;;;13.50;74.57
43420;BME280;29017;51.514;-0.178;2023-02-18T04:07:06;101650.56;;;13.46;74.43
43420;BME280;29017;51.514;-0.178;2023-02-18T04:09:33;101637.50;;;13.45;74.76
43420;BME280;29017;51.514;-0.178;2023-02-18T04:12:00;101656.97;;;13.44;75.16
43420;BME280;29017;51.514;-0.178;2023-02-18T04:14:27;101657.81;;;13.44;75.07
43420;BME280;29017;51.514;-0.178;2023-02-18T04:16:54;101644.59;;;13.44;75.27
43420;BME280;29017;51.514;-0.178;2023-02-18T04:19:21;101650.88;;;13.43;74.59
43420;BME280;29017;51.514;-0.178;2023-02-18T04:21:48;101648.06;;;13.45;75.21
43420;BME280;29017;51.514;-0.178;2023-02-18T04:24:15;101655.19;;;13.44;75.26
43420;BME280;29017;51.514;-0.178;2023-02-18T04:26:42;101664.09;;;13.43;74.95
43420;BME280;29017;51.514;-0.178;2023-02-18T04:29:09;101655.31;;;13.43;74.84
43420;BME280;29017;51.514;-0.178;2023-02-18T04:31:36;101643.25;;;13.40;75.26
43420;BME280;29017;51.514;-0.178;2023-02-18T04:34:03;101657.31;;;13.41;74.92
43420;BME280;29017;51.514;-0.178;2023-02-18T04:36:30;101651.84;;;13.42;75.13
43420;BME280;29017;51.514;-0.178;2023-02-18T04:38:57;101650.88;;;13.43;74.60
43420;BME280;29017;51.514;-0.178;2023-02-18T04:41:24;101656.00;;;13.45;75.26
43420;BME280;29017;51.514;-0.178;2023-02-18T04:43:51;101663.09;;;13.44;75.22
43420;BME280;29017;51.514;-0.178;2023-02-18T04:46:19;101670.06;;;13.45;74.82
43420;BME280;29017;51.514;-0.178;2023-02-18T04:48:45;101662.13;;;13.45;75.38
43420;BME280;29017;51.514;-0.178;2023-02-18T04:51:12;101660.31;;;13.46;74.95
43420;BME280;29017;51.514;-0.178;2023-02-18T04:53:39;101647.38;;;13.43;75.00
43420;BME280;29017;51.514;-0.178;2023-02-18T04:56:06;101643.25;;;13.40;75.68
43420;BME280;29017;51.514;-0.178;2023-02-18T04:58:33;101639.59;;;13.41;75.62
43420;BME280;29017;51.514;-0.178;2023-02-18T05:01:01;101639.78;;;13.40;76.03
43420;BME280;29017;51.514;-0.178;2023-02-18T05:03:29;101641.44;;;13.41;76.18
43420;BME280;29017;51.514;-0.178;2023-02-18T05:05:56;101637.59;;;13.35;75.83
43420;BME280;29017;51.514;-0.178;2023-02-18T05:08:24;101633.94;;;13.36;76.63
43420;BME280;29017;51.514;-0.178;2023-02-18T05:10:50;101640.06;;;13.37;76.15
43420;BME280;29017;51.514;-0.178;2023-02-18T05:13:17;101638.09;;;13.39;76.00
43420;BME280;29017;51.514;-0.178;2023-02-18T05:15:44;101637.13;;;13.40;77.00
43420;BME280;29017;51.514;-0.178;2023-02-18T05:18:11;101656.00;;;13.45;76.85
43420;BME280;29017;51.514;-0.178;2023-02-18T05:20:38;101635.13;;;13.42;77.02
43420;BME280;29017;51.514;-0.178;2023-02-18T05:23:05;101622.94;;;13.41;77.80
43420;BME280;29017;51.514;-0.178;2023-02-18T05:25:32;101624.06;;;13.38;77.75
43420;BME280;29017;51.514;-0.178;2023-02-18T05:27:59;101625.56;;;13.41;78.33
43420;BME280;29017;51.514;-0.178;2023-02-18T05:30:26;101623.72;;;13.41;78.18
43420;BME280;29017;51.514;-0.178;2023-02-18T05:32:53;101632.50;;;13.42;79.03
43420;BME280;29017;51.514;-0.178;2023-02-18T05:35:20;101636.94;;;13.41;79.13
43420;BME280;29017;51.514;-0.178;2023-02-18T05:37:47;101633.34;;;13.42;79.22
43420;BME280;29017;51.514;-0.178;2023-02-18T05:40:13;101637.34;;;13.46;79.11
43420;BME280;29017;51.514;-0.178;2023-02-18T05:42:40;101637.34;;;13.46;78.93
43420;BME280;29017;51.514;-0.178;2023-02-18T05:45:08;101652.69;;;13.43;79.19
43420;BME280;29017;51.514;-0.178;2023-02-18T05:47:35;101642.56;;;13.38;79.55
43420;BME280;29017;51.514;-0.178;2023-02-18T05:50:02;101649.50;;;13.39;80.41
43420;BME280;29017;51.514;-0.178;2023-02-18T05:52:29;101630.03;;;13.40;80.46
43420;BME280;29017;51.514;-0.178;2023-02-18T05:54:56;101635.31;;;13.40;80.66
43420;BME280;29017;51.514;-0.178;2023-02-18T05:57:23;101624.75;;;13.40;81.46
43420;BME280;29017;51.514;-0.178;2023-02-18T05:59:50;101623.59;;;13.43;81.59
43420;BME280;29017;51.514;-0.178;2023-02-18T06:02:17;101628.75;;;13.44;81.79
43420;BME280;29017;51.514;-0.178;2023-02-18T06:04:44;101612.72;;;13.46;81.70
43420;BME280;29017;51.514;-0.178;2023-02-18T06:07:11;101613.53;;;13.46;81.28
43420;BME280;29017;51.514;-0.178;2023-02-18T06:09:38;101606.28;;;13.48;81.62
43420;BME280;29017;51.514;-0.178;2023-02-18T06:12:05;101615.06;;;13.49;81.51
43420;BME280;29017;51.514;-0.178;2023-02-18T06:14:32;101612.41;;;13.49;81.29
43420;BME280;29017;51.514;-0.178;2023-02-18T06:16:59;101603.66;;;13.48;81.49
43420;BME280;29017;51.514;-0.178;2023-02-18T06:19:26;101599.34;;;13.47;81.76
43420;BME280;29017;51.514;-0.178;2023-02-18T06:21:53;101607.28;;;13.47;81.90
43420;BME280;29017;51.514;-0.178;2023-02-18T06:24:21;101603.66;;;13.48;82.08
43420;BME280;29017;51.514;-0.178;2023-02-18T06:26:48;101594.44;;;13.52;82.04
43420;BME280;29017;51.514;-0.178;2023-02-18T06:29:15;101593.91;;;13.49;81.78
43420;BME280;29017;51.514;-0.178;2023-02-18T06:31:42;101594.06;;;13.47;81.92
43420;BME280;29017;51.514;-0.178;2023-02-18T06:34:09;101599.19;;;13.49;82.45
43420;BME280;29017;51.514;-0.178;2023-02-18T06:36:36;101605.47;;;13.48;82.62
43420;BME280;29017;51.514;-0.178;2023-02-18T06:39:03;101596.69;;;13.47;82.00
43420;BME280;29017;51.514;-0.178;2023-02-18T06:41:30;101595.19;;;13.45;82.03
43420;BME280;29017;51.514;-0.178;2023-02-18T06:43:57;101601.31;;;13.45;82.24
43420;BME280;29017;51.514;-0.178;2023-02-18T06:46:24;101599.34;;;13.47;81.91
43420;BME280;29017;51.514;-0.178;2023-02-18T06:48:51;101594.06;;;13.47;82.43
43420;BME280;29017;51.514;-0.178;2023-02-18T06:51:18;101594.88;;;13.48;82.56
43420;BME280;29017;51.514;-0.178;2023-02-18T06:53:45;101582.34;;;13.50;82.73
43420;BME280;29017;51.514;-0.178;2023-02-18T06:56:12;101580.69;;;13.49;82.34
43420;BME280;29017;51.514;-0.178;2023-02-18T06:58:39;101586.94;;;13.48;82.61
43420;BME280;29017;51.514;-0.178;2023-02-18T07:01:06;101591.41;;;13.47;82.51
43420;BME280;29017;51.514;-0.178;2023-02-18T07:03:33;101594.88;;;13.48;82.92
43420;BME280;29017;51.514;-0.178;2023-02-18T07:06:00;101592.75;;;13.51;82.80
43420;BME280;29017;51.514;-0.178;2023-02-18T07:08:27;101580.38;;;13.52;82.82
43420;BME280;29017;51.514;-0.178;2023-02-18T07:10:56;101591.78;;;13.52;82.48
43420;BME280;29017;51.514;-0.178;2023-02-18T07:13:23;101590.66;;;13.55;82.98
43420;BME280;29017;51.514;-0.178;2023-02-18T07:15:50;101583.69;;;13.54;82.51
43420;BME280;29017;51.514;-0.178;2023-02-18T07:18:17;101589.97;;;13.53;82.85
43420;BME280;29017;51.514;-0.178;2023-02-18T07:20:43;101593.31;;;13.55;83.22
43420;BME280;29017;51.514;-0.178;2023-02-18T07:23:10;101597.63;;;13.56;82.99
43420;BME280;29017;51.514;-0.178;2023-02-18T07:25:37;101595.13;;;13.54;82.88
43420;BME280;29017;51.514;-0.178;2023-02-18T07:28:04;101594.97;;;13.56;82.80
43420;BME280;29017;51.514;-0.178;2023-02-18T07:30:31;101596.31;;;13.60;83.45
43420;BME280;29017;51.514;-0.178;2023-02-18T07:32:58;101598.78;;;13.61;83.23
43420;BME280;29017;51.514;-0.178;2023-02-18T07:35:28;101610.88;;;13.64;82.88
43420;BME280;29017;51.514;-0.178;2023-02-18T07:37:55;101591.69;;;13.62;82.85
43420;BME280;29017;51.514;-0.178;2023-02-18T07:40:23;101597.66;;;13.64;82.74
43420;BME280;29017;51.514;-0.178;2023-02-18T07:42:50;101594.88;;;13.65;82.93
43420;BME280;29017;51.514;-0.178;2023-02-18T07:45:20;101605.47;;;13.65;82.90
43420;BME280;29017;51.514;-0.178;2023-02-18T07:47:47;101621.47;;;13.64;82.65
43420;BME280;29017;51.514;-0.178;2023-02-18T07:50:14;101623.78;;;13.67;82.95
43420;BME280;29017;51.514;-0.178;2023-02-18T07:52:41;101621.69;;;13.70;82.92
43420;BME280;29017;51.514;-0.178;2023-02-18T07:55:07;101631.97;;;13.74;82.88
43420;BME280;29017;51.514;-0.178;2023-02-18T07:57:34;101637.75;;;13.77;83.08
43420;BME280;29017;51.514;-0.178;2023-02-18T08:00:21;101633.16;;;13.79;82.89
43420;BME280;29017;51.514;-0.178;2023-02-18T08:02:48;101637.16;;;13.83;82.43
43420;BME280;29017;51.514;-0.178;2023-02-18T08:05:14;101638.81;;;13.84;82.00
43420;BME280;29017;51.514;-0.178;2023-02-18T08:07:41;101636.19;;;13.84;82.01
43420;BME280;29017;51.514;-0.178;2023-02-18T08:10:08;101633.38;;;13.86;81.96
43420;BME280;29017;51.514;-0.178;2023-02-18T08:12:35;101627.91;;;13.87;81.94
43420;BME280;29017;51.514;-0.178;2023-02-18T08:15:02;101611.22;;;13.87;81.24
43420;BME280;29017;51.514;-0.178;2023-02-18T08:17:29;101617.66;;;13.84;81.12
43420;BME280;29017;51.514;-0.178;2023-02-18T08:19:56;101621.44;;;13.82;81.54
43420;BME280;29017;51.514;-0.178;2023-02-18T08:22:22;101612.69;;;13.81;81.87
43420;BME280;29017;51.514;-0.178;2023-02-18T08:24:49;101639.81;;;13.83;81.96
43420;BME280;29017;51.514;-0.178;2023-02-18T08:27:16;101643.13;;;13.85;81.98
43420;BME280;29017;51.514;-0.178;2023-02-18T08:29:43;101649.78;;;13.89;82.36
43420;BME280;29017;51.514;-0.178;2023-02-18T08:32:09;101642.81;;;13.88;82.02
43420;BME280;29017;51.514;-0.178;2023-02-18T08:34:36;101644.81;;;13.86;81.65
43420;BME280;29017;51.514;-0.178;2023-02-18T08:37:03;101651.22;;;13.84;82.01
43420;BME280;29017;51.514;-0.178;2023-02-18T08:42:03;101653.34;;;13.80;82.20
43420;BME280;29017;51.514;-0.178;2023-02-18T08:44:29;101654.00;;;13.82;82.48
43420;BME280;29017;51.514;-0.178;2023-02-18T08:47:00;101650.53;;;13.82;82.43
43420;BME280;29017;51.514;-0.178;2023-02-18T08:49:26;101661.66;;;13.85;83.05
43420;BME280;29017;51.514;-0.178;2023-02-18T08:51:54;101659.66;;;13.87;83.43
43420;BME280;29017;51.514;-0.178;2023-02-18T08:54:21;101668.97;;;13.91;83.36
43420;BME280;29017;51.514;-0.178;2023-02-18T08:56:48;101669.50;;;13.95;82.45
43420;BME280;29017;51.514;-0.178;2023-02-18T08:59:15;101656.41;;;13.93;82.37
43420;BME280;29017;51.514;-0.178;2023-02-18T09:01:42;101666.16;;;13.93;82.24
43420;BME280;29017;51.514;-0.178;2023-02-18T09:04:08;101674.66;;;13.96;82.81
43420;BME280;29017;51.514;-0.178;2023-02-18T09:06:36;101675.00;;;14.01;82.73
43420;BME280;29017;51.514;-0.178;2023-02-18T09:09:03;101673.72;;;14.05;82.84
43420;BME280;29017;51.514;-0.178;2023-02-18T09:11:30;101680.34;;;14.09;82.57
43420;BME280;29017;51.514;-0.178;2023-02-18T09:13:57;101681.03;;;14.11;82.80
43420;BME280;29017;51.514;-0.178;2023-02-18T09:16:24;101681.56;;;14.15;82.55
43420;BME280;29017;51.514;-0.178;2023-02-18T09:18:52;101669.81;;;14.18;82.91
43420;BME280;29017;51.514;-0.178;2023-02-18T09:21:19;101683.22;;;14.16;82.31
43420;BME280;29017;51.514;-0.178;2023-02-18T09:23:46;101679.28;;;14.20;82.75
43420;BME280;29017;51.514;-0.178;2023-02-18T09:26:13;101688.56;;;14.24;83.12
43420;BME280;29017;51.514;-0.178;2023-02-18T09:28:40;101696.50;;;14.24;82.35
43420;BME280;29017;51.514;-0.178;2023-02-18T09:31:09;101690.91;;;14.27;82.52
43420;BME280;29017;51.514;-0.178;2023-02-18T09:33:38;101689.91;;;14.28;82.71
43420;BME280;29017;51.514;-0.178;2023-02-18T09:36:06;101689.06;;;14.28;82.80
43420;BME280;29017;51.514;-0.178;2023-02-18T09:38:33;101693.09;;;14.32;82.54
43420;BME280;29017;51.514;-0.178;2023-02-18T09:41:04;101709.50;;;14.35;82.12
43420;BME280;29017;51.514;-0.178;2023-02-18T09:46:01;101696.56;;;14.32;82.62
43420;BME280;29017;51.514;-0.178;2023-02-18T09:48:30;101704.19;;;14.35;82.98
43420;BME280;29017;51.514;-0.178;2023-02-18T09:50:58;101715.50;;;14.37;82.83
43420;BME280;29017;51.514;-0.178;2023-02-18T09:53:25;101708.06;;;14.41;82.68
43420;BME280;29017;51.514;-0.178;2023-02-18T09:55:53;101715.03;;;14.42;82.53
43420;BME280;29017;51.514;-0.178;2023-02-18T09:58:23;101721.97;;;14.43;82.80
43420;BME280;29017;51.514;-0.178;2023-02-18T10:00:52;101708.59;;;14.44;82.94
43420;BME280;29017;51.514;-0.178;2023-02-18T10:03:21;101706.75;;;14.45;82.94
43420;BME280;29017;51.514;-0.178;2023-02-18T10:08:19;101697.34;;;14.42;82.88
43420;BME280;29017;51.514;-0.178;2023-02-18T10:10:47;101716.00;;;14.41;83.58
43420;BME280;29017;51.514;-0.178;2023-02-18T10:13:16;101696.66;;;14.40;83.73
43420;BME280;29017;51.514;-0.178;2023-02-18T10:15:43;101693.16;;;14.40;84.05
43420;BME280;29017;51.514;-0.178;2023-02-18T10:20:41;101714.19;;;14.41;84.53
43420;BME280;29017;51.514;-0.178;2023-02-18T10:23:08;101704.25;;;14.43;84.14
43420;BME280;29017;51.514;-0.178;2023-02-18T10:25:36;101710.09;;;14.47;83.96
43420;BME280;29017;51.514;-0.178;2023-02-18T10:28:07;101704.81;;;14.47;83.85
43420;BME280;29017;51.514;-0.178;2023-02-18T10:30:36;101712.91;;;14.45;83.75
43420;BME280;29017;51.514;-0.178;2023-02-18T10:35:38;101717.22;;;14.46;84.05
43420;BME280;29017;51.514;-0.178;2023-02-18T10:38:12;101724.97;;;14.48;84.34
43420;BME280;29017;51.514;-0.178;2023-02-18T10:48:14;101734.28;;;14.52;84.83
43420;BME280;29017;51.514;-0.178;2023-02-18T10:50:46;101736.94;;;14.52;84.60
43420;BME280;29017;51.514;-0.178;2023-02-18T10:53:18;101736.78;;;14.53;84.55
43420;BME280;29017;51.514;-0.178;2023-02-18T10:55:46;101736.94;;;14.52;84.98
43420;BME280;29017;51.514;-0.178;2023-02-18T11:00:45;101758.50;;;14.57;85.32
43420;BME280;29017;51.514;-0.178;2023-02-18T11:03:13;101745.06;;;14.59;85.18
43420;BME280;29017;51.514;-0.178;2023-02-18T11:05:41;101745.63;;;14.62;85.56
43420;BME280;29017;51.514;-0.178;2023-02-18T11:08:08;101751.75;;;14.63;85.68
43420;BME280;29017;51.514;-0.178;2023-02-18T11:10:39;101755.38;;;14.62;85.53
43420;BME280;29017;51.514;-0.178;2023-02-18T11:13:08;101747.59;;;14.60;85.56
43420;BME280;29017;51.514;-0.178;2023-02-18T11:15:35;101744.78;;;14.62;85.93
43420;BME280;29017;51.514;-0.178;2023-02-18T11:20:34;101748.09;;;14.64;85.86
43420;BME280;29017;51.514;-0.178;2023-02-18T11:25:32;101745.28;;;14.65;86.51
43420;BME280;29017;51.514;-0.178;2023-02-18T11:33:02;101738.66;;;14.61;86.80
43420;BME280;29017;51.514;-0.178;2023-02-18T11:35:32;101747.44;;;14.62;86.61
43420;BME280;29017;51.514;-0.178;2023-02-18T11:38:00;101745.63;;;14.62;86.72
43420;BME280;29017;51.514;-0.178;2023-02-18T11:45:27;101746.97;;;14.66;87.09
43420;BME280;29017;51.514;-0.178;2023-02-18T11:50:24;101751.09;;;14.69;87.11
43420;BME280;29017;51.514;-0.178;2023-02-18T11:52:51;101747.78;;;14.67;87.03
43420;BME280;29017;51.514;-0.178;2023-02-18T11:55:21;101734.38;;;14.68;87.32
43420;BME280;29017;51.514;-0.178;2023-02-18T11:57:51;101723.63;;;14.70;87.20
43420;BME280;29017;51.514;-0.178;2023-02-18T12:02:51;101723.13;;;14.66;87.61
43420;BME280;29017;51.514;-0.178;2023-02-18T12:05:21;101737.66;;;14.62;87.86
43420;BME280;29017;51.514;-0.178;2023-02-18T12:07:50;101735.50;;;14.58;88.05
43420;BME280;29017;51.514;-0.178;2023-02-18T12:10:21;101740.78;;;14.58;88.54
43420;BME280;29017;51.514;-0.178;2023-02-18T12:12:51;101737.81;;;14.61;88.87
43420;BME280;29017;51.514;-0.178;2023-02-18T12:15:22;101734.19;;;14.62;88.69
43420;BME280;29017;51.514;-0.178;2023-02-18T12:17:55;101722.44;;;14.64;88.47
43420;BME280;29017;51.514;-0.178;2023-02-18T12:22:59;101721.19;;;14.76;90.28
43420;BME280;29017;51.514;-0.178;2023-02-18T12:25:34;101708.78;;;14.85;90.79
43420;BME280;29017;51.514;-0.178;2023-02-18T12:30:41;101712.28;;;14.85;87.31
43420;BME280;29017;51.514;-0.178;2023-02-18T13:10:33;101693.66;;;15.11;88.00
43420;BME280;29017;51.514;-0.178;2023-02-18T13:15:39;101699.50;;;15.23;88.29
43420;BME280;29017;51.514;-0.178;2023-02-18T13:18:10;101703.31;;;15.20;88.75
43420;BME280;29017;51.514;-0.178;2023-02-18T13:20:41;101700.81;;;15.19;89.58
43420;BME280;29017;51.514;-0.178;2023-02-18T13:25:39;101689.69;;;15.15;89.90
43420;BME280;29017;51.514;-0.178;2023-02-18T13:30:40;101688.50;;;15.10;90.29
43420;BME280;29017;51.514;-0.178;2023-02-18T13:35:41;101683.19;;;15.02;91.25
43420;BME280;29017;51.514;-0.178;2023-02-18T13:40:40;101673.56;;;14.92;91.48
43420;BME280;29017;51.514;-0.178;2023-02-18T13:43:16;101672.69;;;14.84;92.13
43420;BME280;29017;51.514;-0.178;2023-02-18T13:46:00;101671.19;;;14.81;92.49
43420;BME280;29017;51.514;-0.178;2023-02-18T13:48:28;101667.72;;;14.81;92.65
43420;BME280;29017;51.514;-0.178;2023-02-18T13:53:25;101654.63;;;14.79;93.16
43420;BME280;29017;51.514;-0.178;2023-02-18T14:00:52;101642.69;;;14.83;93.95
43420;BME280;29017;51.514;-0.178;2023-02-18T14:05:51;101628.81;;;14.81;94.17
43420;BME280;29017;51.514;-0.178;2023-02-18T14:13:22;101622.88;;;14.87;93.49
43420;BME280;29017;51.514;-0.178;2023-02-18T14:15:52;101615.56;;;14.89;93.41
43420;BME280;29017;51.514;-0.178;2023-02-18T14:20:50;101623.56;;;14.97;93.19
43420;BME280;29017;51.514;-0.178;2023-02-18T14:30:46;101625.69;;;14.94;91.04
43420;BME280;29017;51.514;-0.178;2023-02-18T14:33:13;101623.88;;;14.94;91.29
43420;BME280;29017;51.514;-0.178;2023-02-18T14:48:16;101634.13;;;14.89;91.80
43420;BME280;29017;51.514;-0.178;2023-02-18T14:50:47;101622.53;;;14.90;91.99
43420;BME280;29017;51.514;-0.178;2023-02-18T14:53:17;101628.81;;;14.89;91.91
43420;BME280;29017;51.514;-0.178;2023-02-18T14:55:47;101628.81;;;14.89;90.03
43420;BME280;29017;51.514;-0.178;2023-02-18T15:00:45;101613.75;;;14.90;88.38
43420;BME280;29017;51.514;-0.178;2023-02-18T15:03:13;101622.38;;;14.92;87.47
43420;BME280;29017;51.514;-0.178;2023-02-18T15:05:41;101612.44;;;14.94;87.03
43420;BME280;29017;51.514;-0.178;2023-02-18T15:08:15;101619.53;;;14.93;86.49
43420;BME280;29017;51.514;-0.178;2023-02-18T15:13:13;101615.59;;;14.97;85.97
43420;BME280;29017;51.514;-0.178;2023-02-18T15:15:42;101608.31;;;14.99;86.37
43420;BME280;29017;51.514;-0.178;2023-02-18T15:20:41;101602.84;;;15.01;85.24
43420;BME280;29017;51.514;-0.178;2023-02-18T15:23:10;101601.88;;;15.02;85.80
43420;BME280;29017;51.514;-0.178;2023-02-18T15:25:37;101591.91;;;15.04;85.71
43420;BME280;29017;51.514;-0.178;2023-02-18T15:28:05;101597.56;;;15.01;85.48
43420;BME280;29017;51.514;-0.178;2023-02-18T15:30:32;101595.72;;;15.02;85.64
43420;BME280;29017;51.514;-0.178;2023-02-18T15:32:59;101585.13;;;15.02;85.55
43420;BME280;29017;51.514;-0.178;2023-02-18T15:35:27;101593.22;;;15.00;85.18
43420;BME280;29017;51.514;-0.178;2023-02-18T15:37:56;101581.66;;;15.01;84.21
43420;BME280;29017;51.514;-0.178;2023-02-18T15:40:26;101600.03;;;15.03;84.03
43420;BME280;29017;51.514;-0.178;2023-02-18T15:42:56;101591.91;;;15.04;83.49
43420;BME280;29017;51.514;-0.178;2023-02-18T15:45:24;101596.38;;;15.04;83.22
43420;BME280;29017;51.514;-0.178;2023-02-18T15:47:55;101585.28;;;15.00;82.25
43420;BME280;29017;51.514;-0.178;2023-02-18T15:52:54;101593.09;;;15.02;80.31
43420;BME280;29017;51.514;-0.178;2023-02-18T15:57:52;101567.91;;;14.97;79.27
43420;BME280;29017;51.514;-0.178;2023-02-18T16:00:25;101585.09;;;14.93;78.30